Cruise Bonaria — ICUS — position and weather

sailwx.info

Track history (hours):
 
Tides and Currents Weather Stations Pressure Air Temp Water Temp Dewpoint Dewpoint Depression Visibility Wind Speed Wind Dir Waves Ship Positions

Cruise Bonaria

Last reported at 2018-Feb-24 23:14 UTC. Time now 2018-Feb-25 08:13 UTC.
Position N 42°54' E 010°02'.

Length 214 m; draft 6.7 m.

Type: Passenger vessel. MMSI: 247322400.

Date/timePositionNaut miles runAvg speedWind from/ knotsBaromVisibWave heightAir tempDewpointWater temp
2018-Feb-24 23:14N 42°54' E 010°02'519.9
2018-Feb-24 23:00N 42°58' E 010°03'1019.9
2018-Feb-24 22:30N 43°08' E 010°06'1020.0
2018-Feb-24 22:00N 43°18' E 010°09'1019.9
2018-Feb-24 21:30N 43°27' E 010°12'712.8
2018-Feb-24 21:00N 43°32' E 010°17'2 4.8
2018-Feb-24 20:29N 43°35' E 010°18'0 0.0
2018-Feb-24 19:59N 43°35' E 010°18'0 0.0
2018-Feb-24 19:29N 43°35' E 010°18'0 0.0
2018-Feb-24 18:59N 43°35' E 010°18'0 0.0
2018-Feb-24 18:29N 43°35' E 010°18'0 0.0
2018-Feb-24 17:59N 43°35' E 010°18'0 0.0
2018-Feb-24 17:29N 43°35' E 010°18'0 0.0
2018-Feb-24 16:59N 43°35' E 010°18'0 0.0
2018-Feb-24 16:29N 43°35' E 010°18'0 0.0
2018-Feb-24 15:59N 43°35' E 010°18'0 0.0
2018-Feb-24 15:29N 43°35' E 010°18'0 0.0
2018-Feb-24 14:59N 43°35' E 010°18'0 0.0
2018-Feb-24 14:29N 43°35' E 010°18'0 0.0
2018-Feb-24 14:01N 43°35' E 010°18'0 0.0
2018-Feb-24 13:30N 43°35' E 010°18'0 0.0
2018-Feb-24 13:01N 43°35' E 010°18'0 0.0
2018-Feb-24 12:30N 43°35' E 010°18'0 0.0
2018-Feb-24 12:01N 43°35' E 010°18'0 0.0
2018-Feb-24 11:31N 43°35' E 010°18'0 0.0
2018-Feb-24 11:00N 43°35' E 010°18'0 0.0
2018-Feb-24 10:31N 43°35' E 010°18'0 0.0
2018-Feb-24 10:00N 43°35' E 010°18'0 0.0
2018-Feb-24 09:30N 43°35' E 010°18'0 0.0
2018-Feb-24 09:01N 43°35' E 010°18'0 0.0
2018-Feb-24 08:31N 43°35' E 010°18'0 0.0
2018-Feb-24 08:01N 43°35' E 010°18'0 0.0
2018-Feb-24 07:31N 43°35' E 010°18'0 0.0
2018-Feb-24 07:01N 43°35' E 010°18'0 0.0
2018-Feb-24 06:31N 43°35' E 010°18'1 2.1
2018-Feb-24 06:01N 43°34' E 010°18'3 6.0
2018-Feb-24 05:31N 43°31' E 010°16'815.8
2018-Feb-24 05:00N 43°25' E 010°10'1019.2
2018-Feb-24 04:30N 43°15' E 010°07'1019.5
2018-Feb-24 04:00N 43°06' E 010°05'1019.2
2018-Feb-24 03:30N 42°56' E 010°03'1 0.1
2018-Feb-23 11:53N 42°56' E 010°02'822.1
2018-Feb-23 11:30N 43°04' E 010°04'1122.0
2018-Feb-23 11:00N 43°15' E 010°07'1121.7
2018-Feb-23 10:30N 43°26' E 010°10'815.2
2018-Feb-23 10:00N 43°32' E 010°16'3 6.0
2018-Feb-23 09:30N 43°34' E 010°18'0 0.8
2018-Feb-23 09:00N 43°35' E 010°18'0 0.0
2018-Feb-23 08:30N 43°35' E 010°18'0 0.0
2018-Feb-23 08:00N 43°35' E 010°18'0 0.0
2018-Feb-23 07:30N 43°35' E 010°18'0 0.0
2018-Feb-23 07:00N 43°35' E 010°18'0 0.0
2018-Feb-23 06:30N 43°35' E 010°18'0 0.0
2018-Feb-23 06:00N 43°35' E 010°18'1 1.5
2018-Feb-23 05:30N 43°34' E 010°18'611.0
2018-Feb-23 05:01N 43°30' E 010°13'1020.5
2018-Feb-23 04:31N 43°20' E 010°08'1020.8
2018-Feb-23 04:01N 43°10' E 010°06'1020.7
2018-Feb-23 03:31N 42°60' E 010°03'5 0.3
2018-Feb-22 11:41N 42°55' E 010°02'421.4
2018-Feb-22 11:30N 42°59' E 010°03'1121.4
2018-Feb-22 11:00N 43°09' E 010°06'1121.3
2018-Feb-22 10:30N 43°19' E 010°10'1121.3
2018-Feb-22 10:00N 43°30' E 010°13'510.3
2018-Feb-22 09:30N 43°33' E 010°18'1 2.7
2018-Feb-22 09:00N 43°35' E 010°18'0 0.0
2018-Feb-22 08:30N 43°35' E 010°18'0 0.0
2018-Feb-22 08:00N 43°35' E 010°18'0 0.0
2018-Feb-22 07:30N 43°35' E 010°18'0 0.0
2018-Feb-22 07:00N 43°35' E 010°18'0 0.0
2018-Feb-22 06:30N 43°35' E 010°18'0 0.0
2018-Feb-22 06:00N 43°35' E 010°18'1 1.3
2018-Feb-22 05:30N 43°34' E 010°18'4 8.4
2018-Feb-22 05:00N 43°31' E 010°15'1020.5
2018-Feb-22 04:30N 43°21' E 010°10'1020.8
2018-Feb-22 04:00N 43°11' E 010°07'1020.8
2018-Feb-22 03:30N 43°01' E 010°03'8 0.5
2018-Feb-21 11:57N 42°53' E 010°01'1021.9
2018-Feb-21 11:30N 43°02' E 010°04'1121.8
2018-Feb-21 11:00N 43°13' E 010°07'1121.8
2018-Feb-21 10:30N 43°23' E 010°11'918.4
2018-Feb-21 10:00N 43°32' E 010°16'3 6.8
2018-Feb-21 09:30N 43°35' E 010°18'0 0.0
2018-Feb-21 09:00N 43°35' E 010°18'0 0.0
2018-Feb-21 08:30N 43°35' E 010°18'0 0.0
2018-Feb-21 08:00N 43°35' E 010°18'0 0.0
2018-Feb-21 07:30N 43°35' E 010°18'0 0.0
2018-Feb-21 07:00N 43°35' E 010°18'0 0.0
2018-Feb-21 06:30N 43°35' E 010°18'0 0.0
2018-Feb-21 06:00N 43°35' E 010°18'3 5.2
2018-Feb-21 05:30N 43°32' E 010°17'713.2
2018-Feb-21 05:00N 43°27' E 010°12'1121.2
2018-Feb-21 04:30N 43°17' E 010°09'1121.3
2018-Feb-21 04:00N 43°06' E 010°05'1121.2
2018-Feb-21 03:30N 42°56' E 010°02'1 0.0
2018-Feb-20 12:04N 42°56' E 010°01'122.3
2018-Feb-20 12:00N 42°58' E 010°01'1122.1
2018-Feb-20 11:30N 43°08' E 010°05'1122.0
2018-Feb-20 11:00N 43°19' E 010°09'1121.7
2018-Feb-20 10:30N 43°29' E 010°13'611.1
2018-Feb-20 10:01N 43°34' E 010°18'1 2.6
2018-Feb-20 09:31N 43°35' E 010°18'0 0.0
2018-Feb-20 09:01N 43°35' E 010°18'0 0.0
2018-Feb-20 08:30N 43°35' E 010°18'0 0.0
2018-Feb-20 08:00N 43°35' E 010°18'0 0.0
2018-Feb-20 07:31N 43°35' E 010°18'0 0.0
2018-Feb-20 07:01N 43°35' E 010°18'0 0.0
2018-Feb-20 06:31N 43°35' E 010°18'0 0.0
2018-Feb-20 06:00N 43°35' E 010°18'1 1.4
2018-Feb-20 05:30N 43°34' E 010°18'3 6.6
2018-Feb-20 05:00N 43°32' E 010°16'816.7
2018-Feb-20 04:30N 43°24' E 010°10'1020.3
2018-Feb-20 04:00N 43°15' E 010°06'1020.5
2018-Feb-20 03:30N 43°05' E 010°04'1120.7
2018-Feb-20 02:59N 42°54' E 010°01'1 0.0
2018-Feb-19 11:41N 42°55' E 010°01'421.4
2018-Feb-19 11:30N 42°58' E 010°02'1121.3
2018-Feb-19 11:00N 43°09' E 010°06'1121.2
2018-Feb-19 10:30N 43°19' E 010°10'1020.4
2018-Feb-19 10:00N 43°29' E 010°13'510.5
2018-Feb-19 09:30N 43°33' E 010°17'2 4.2
2018-Feb-19 09:00N 43°35' E 010°18'0 0.0
2018-Feb-19 08:30N 43°35' E 010°18'0 0.0
2018-Feb-19 08:00N 43°35' E 010°18'0 0.0
2018-Feb-19 07:30N 43°35' E 010°18'0 0.0
2018-Feb-19 07:00N 43°35' E 010°18'0 0.0
2018-Feb-19 06:30N 43°35' E 010°18'1 1.5
2018-Feb-19 06:00N 43°34' E 010°18'4 7.7
2018-Feb-19 05:31N 43°31' E 010°15'918.1
2018-Feb-19 05:01N 43°23' E 010°09'1019.4
2018-Feb-19 04:30N 43°14' E 010°06'1019.5
2018-Feb-19 04:00N 43°04' E 010°03'10 0.3
2018-Feb-17 23:16N 42°54' E 010°01'519.5
2018-Feb-17 23:00N 42°59' E 010°02'1019.5
2018-Feb-17 22:30N 43°09' E 010°05'1019.6
2018-Feb-17 22:00N 43°18' E 010°08'1019.5
2018-Feb-17 21:30N 43°28' E 010°11'611.7
2018-Feb-17 21:00N 43°32' E 010°17'3 5.3
2018-Feb-17 20:29N 43°35' E 010°18'0 0.0
2018-Feb-17 19:59N 43°35' E 010°18'0 0.0
2018-Feb-17 19:29N 43°35' E 010°18'0 0.0
2018-Feb-17 18:59N 43°35' E 010°18'0 0.0
2018-Feb-17 18:29N 43°35' E 010°18'0 0.0
2018-Feb-17 17:59N 43°35' E 010°18'0 0.0
2018-Feb-17 17:29N 43°35' E 010°18'0 0.0
2018-Feb-17 16:59N 43°35' E 010°18'0 0.0
2018-Feb-17 16:29N 43°35' E 010°18'0 0.0
2018-Feb-17 15:59N 43°35' E 010°18'0 0.0
2018-Feb-17 15:29N 43°35' E 010°18'0 0.0
2018-Feb-17 14:59N 43°35' E 010°18'0 0.0
2018-Feb-17 14:26N 43°35' E 010°18'0 0.0
2018-Feb-17 13:59N 43°35' E 010°18'0 0.0
2018-Feb-17 13:29N 43°35' E 010°18'0 0.0
2018-Feb-17 12:59N 43°35' E 010°18'0 0.0
2018-Feb-17 12:29N 43°35' E 010°18'0 0.0
2018-Feb-17 11:59N 43°35' E 010°18'0 0.0
2018-Feb-17 11:29N 43°35' E 010°18'0 0.0
2018-Feb-17 10:59N 43°35' E 010°18'0 0.0
2018-Feb-17 10:29N 43°35' E 010°18'0 0.0
2018-Feb-17 09:59N 43°35' E 010°18'0 0.0
2018-Feb-17 09:30N 43°35' E 010°18'0 0.0
2018-Feb-17 09:00N 43°35' E 010°18'0 0.0
2018-Feb-17 08:30N 43°35' E 010°18'0 0.0
2018-Feb-17 08:00N 43°35' E 010°18'0 0.0
2018-Feb-17 07:30N 43°35' E 010°18'0 0.0
2018-Feb-17 07:00N 43°35' E 010°18'0 0.0
2018-Feb-17 06:30N 43°35' E 010°18'1 1.4
2018-Feb-17 06:00N 43°34' E 010°18'4 7.1
2018-Feb-17 05:30N 43°31' E 010°15'816.9
2018-Feb-17 05:00N 43°24' E 010°10'1019.2
2018-Feb-17 04:30N 43°14' E 010°07'1019.4
2018-Feb-17 04:00N 43°05' E 010°04'13 0.8
2018-Feb-16 12:17N 42°52' E 009°60'622.0
2018-Feb-16 12:00N 42°59' E 010°02'1122.1
2018-Feb-16 11:30N 43°09' E 010°05'1122.1
2018-Feb-16 11:00N 43°20' E 010°09'1121.7
2018-Feb-16 10:30N 43°31' E 010°13'5 9.8
2018-Feb-16 10:00N 43°34' E 010°18'1 2.5
2018-Feb-16 09:30N 43°35' E 010°18'0 0.0
2018-Feb-16 09:00N 43°35' E 010°18'0 0.0
2018-Feb-16 08:30N 43°35' E 010°18'0 0.0
2018-Feb-16 08:00N 43°35' E 010°18'0 0.0
2018-Feb-16 07:30N 43°35' E 010°18'0 0.0
2018-Feb-16 07:00N 43°35' E 010°18'1 1.3
2018-Feb-16 06:30N 43°34' E 010°18'2 4.8
2018-Feb-16 06:00N 43°32' E 010°17'510.6
2018-Feb-16 05:31N 43°28' E 010°12'1122.2
2018-Feb-16 05:00N 43°18' E 010°08'1122.2
2018-Feb-16 04:31N 43°07' E 010°04'9 0.6
2018-Feb-15 13:13N 42°59' E 010°01'522.5
2018-Feb-15 13:00N 43°03' E 010°02'1122.6
2018-Feb-15 12:30N 43°14' E 010°06'1122.3
2018-Feb-15 12:00N 43°25' E 010°10'816.8
2018-Feb-15 11:30N 43°32' E 010°16'3 6.4
2018-Feb-15 11:00N 43°35' E 010°18'0 0.2
2018-Feb-15 10:30N 43°35' E 010°18'0 0.0
2018-Feb-15 10:00N 43°35' E 010°18'0 0.0
2018-Feb-15 09:30N 43°35' E 010°18'0 0.0
2018-Feb-15 09:00N 43°35' E 010°18'0 0.0
2018-Feb-15 08:30N 43°35' E 010°18'1 1.5
2018-Feb-15 08:00N 43°34' E 010°18'4 7.3
2018-Feb-15 07:30N 43°31' E 010°15'5 9.4
2018-Feb-15 07:00N 43°27' E 010°11'1122.6
2018-Feb-15 06:31N 43°17' E 010°06'1122.4
2018-Feb-15 06:01N 43°06' E 010°03'1122.5
2018-Feb-15 05:30N 42°55' E 010°00'  
Track history (hours):
 
Tides and Currents Weather Stations Pressure Air Temp Water Temp Dewpoint Dewpoint Depression Visibility Wind Speed Wind Dir Waves Ship Positions

Cruise Bonaria

Last reported at 2018-Feb-24 23:14 UTC. Time now 2018-Feb-25 08:13 UTC.
Position N 42°54' E 010°02'.

Length 214 m; draft 6.7 m.

Type: Passenger vessel. MMSI: 247322400.

Date/timePositionNaut miles runAvg speedWind from/ knotsBaromVisibWave heightAir tempDewpointWater temp
2018-Feb-24 23:14N 42°54' E 010°02'519.9
2018-Feb-24 23:00N 42°58' E 010°03'1019.9
2018-Feb-24 22:30N 43°08' E 010°06'1020.0
2018-Feb-24 22:00N 43°18' E 010°09'1019.9
2018-Feb-24 21:30N 43°27' E 010°12'712.8
2018-Feb-24 21:00N 43°32' E 010°17'2 4.8
2018-Feb-24 20:29N 43°35' E 010°18'0 0.0
2018-Feb-24 19:59N 43°35' E 010°18'0 0.0
2018-Feb-24 19:29N 43°35' E 010°18'0 0.0
2018-Feb-24 18:59N 43°35' E 010°18'0 0.0
2018-Feb-24 18:29N 43°35' E 010°18'0 0.0
2018-Feb-24 17:59N 43°35' E 010°18'0 0.0
2018-Feb-24 17:29N 43°35' E 010°18'0 0.0
2018-Feb-24 16:59N 43°35' E 010°18'0 0.0
2018-Feb-24 16:29N 43°35' E 010°18'0 0.0
2018-Feb-24 15:59N 43°35' E 010°18'0 0.0
2018-Feb-24 15:29N 43°35' E 010°18'0 0.0
2018-Feb-24 14:59N 43°35' E 010°18'0 0.0
2018-Feb-24 14:29N 43°35' E 010°18'0 0.0
2018-Feb-24 14:01N 43°35' E 010°18'0 0.0
2018-Feb-24 13:30N 43°35' E 010°18'0 0.0
2018-Feb-24 13:01N 43°35' E 010°18'0 0.0
2018-Feb-24 12:30N 43°35' E 010°18'0 0.0
2018-Feb-24 12:01N 43°35' E 010°18'0 0.0
2018-Feb-24 11:31N 43°35' E 010°18'0 0.0
2018-Feb-24 11:00N 43°35' E 010°18'0 0.0
2018-Feb-24 10:31N 43°35' E 010°18'0 0.0
2018-Feb-24 10:00N 43°35' E 010°18'0 0.0
2018-Feb-24 09:30N 43°35' E 010°18'0 0.0
2018-Feb-24 09:01N 43°35' E 010°18'0 0.0
2018-Feb-24 08:31N 43°35' E 010°18'0 0.0
2018-Feb-24 08:01N 43°35' E 010°18'0 0.0
2018-Feb-24 07:31N 43°35' E 010°18'0 0.0
2018-Feb-24 07:01N 43°35' E 010°18'0 0.0
2018-Feb-24 06:31N 43°35' E 010°18'1 2.1
2018-Feb-24 06:01N 43°34' E 010°18'3 6.0
2018-Feb-24 05:31N 43°31' E 010°16'815.8
2018-Feb-24 05:00N 43°25' E 010°10'1019.2
2018-Feb-24 04:30N 43°15' E 010°07'1019.5
2018-Feb-24 04:00N 43°06' E 010°05'1019.2
2018-Feb-24 03:30N 42°56' E 010°03'1 0.1
2018-Feb-23 11:53N 42°56' E 010°02'822.1
2018-Feb-23 11:30N 43°04' E 010°04'1122.0
2018-Feb-23 11:00N 43°15' E 010°07'1121.7
2018-Feb-23 10:30N 43°26' E 010°10'815.2
2018-Feb-23 10:00N 43°32' E 010°16'3 6.0
2018-Feb-23 09:30N 43°34' E 010°18'0 0.8
2018-Feb-23 09:00N 43°35' E 010°18'0 0.0
2018-Feb-23 08:30N 43°35' E 010°18'0 0.0
2018-Feb-23 08:00N 43°35' E 010°18'0 0.0
2018-Feb-23 07:30N 43°35' E 010°18'0 0.0
2018-Feb-23 07:00N 43°35' E 010°18'0 0.0
2018-Feb-23 06:30N 43°35' E 010°18'0 0.0
2018-Feb-23 06:00N 43°35' E 010°18'1 1.5
2018-Feb-23 05:30N 43°34' E 010°18'611.0
2018-Feb-23 05:01N 43°30' E 010°13'1020.5
2018-Feb-23 04:31N 43°20' E 010°08'1020.8
2018-Feb-23 04:01N 43°10' E 010°06'1020.7
2018-Feb-23 03:31N 42°60' E 010°03'5 0.3
2018-Feb-22 11:41N 42°55' E 010°02'421.4
2018-Feb-22 11:30N 42°59' E 010°03'1121.4
2018-Feb-22 11:00N 43°09' E 010°06'1121.3
2018-Feb-22 10:30N 43°19' E 010°10'1121.3
2018-Feb-22 10:00N 43°30' E 010°13'510.3
2018-Feb-22 09:30N 43°33' E 010°18'1 2.7
2018-Feb-22 09:00N 43°35' E 010°18'0 0.0
2018-Feb-22 08:30N 43°35' E 010°18'0 0.0
2018-Feb-22 08:00N 43°35' E 010°18'0 0.0
2018-Feb-22 07:30N 43°35' E 010°18'0 0.0
2018-Feb-22 07:00N 43°35' E 010°18'0 0.0
2018-Feb-22 06:30N 43°35' E 010°18'0 0.0
2018-Feb-22 06:00N 43°35' E 010°18'1 1.3
2018-Feb-22 05:30N 43°34' E 010°18'4 8.4
2018-Feb-22 05:00N 43°31' E 010°15'1020.5
2018-Feb-22 04:30N 43°21' E 010°10'1020.8
2018-Feb-22 04:00N 43°11' E 010°07'1020.8
2018-Feb-22 03:30N 43°01' E 010°03'8 0.5
2018-Feb-21 11:57N 42°53' E 010°01'1021.9
2018-Feb-21 11:30N 43°02' E 010°04'1121.8
2018-Feb-21 11:00N 43°13' E 010°07'1121.8
2018-Feb-21 10:30N 43°23' E 010°11'918.4
2018-Feb-21 10:00N 43°32' E 010°16'3 6.8
2018-Feb-21 09:30N 43°35' E 010°18'0 0.0
2018-Feb-21 09:00N 43°35' E 010°18'0 0.0
2018-Feb-21 08:30N 43°35' E 010°18'0 0.0
2018-Feb-21 08:00N 43°35' E 010°18'0 0.0
2018-Feb-21 07:30N 43°35' E 010°18'0 0.0
2018-Feb-21 07:00N 43°35' E 010°18'0 0.0
2018-Feb-21 06:30N 43°35' E 010°18'0 0.0
2018-Feb-21 06:00N 43°35' E 010°18'3 5.2
2018-Feb-21 05:30N 43°32' E 010°17'713.2
2018-Feb-21 05:00N 43°27' E 010°12'1121.2
2018-Feb-21 04:30N 43°17' E 010°09'1121.3
2018-Feb-21 04:00N 43°06' E 010°05'1121.2
2018-Feb-21 03:30N 42°56' E 010°02'1 0.0
2018-Feb-20 12:04N 42°56' E 010°01'122.3
2018-Feb-20 12:00N 42°58' E 010°01'1122.1
2018-Feb-20 11:30N 43°08' E 010°05'1122.0
2018-Feb-20 11:00N 43°19' E 010°09'1121.7
2018-Feb-20 10:30N 43°29' E 010°13'611.1
2018-Feb-20 10:01N 43°34' E 010°18'1 2.6
2018-Feb-20 09:31N 43°35' E 010°18'0 0.0
2018-Feb-20 09:01N 43°35' E 010°18'0 0.0
2018-Feb-20 08:30N 43°35' E 010°18'0 0.0
2018-Feb-20 08:00N 43°35' E 010°18'0 0.0
2018-Feb-20 07:31N 43°35' E 010°18'0 0.0
2018-Feb-20 07:01N 43°35' E 010°18'0 0.0
2018-Feb-20 06:31N 43°35' E 010°18'0 0.0
2018-Feb-20 06:00N 43°35' E 010°18'1 1.4
2018-Feb-20 05:30N 43°34' E 010°18'3 6.6
2018-Feb-20 05:00N 43°32' E 010°16'816.7
2018-Feb-20 04:30N 43°24' E 010°10'1020.3
2018-Feb-20 04:00N 43°15' E 010°06'1020.5
2018-Feb-20 03:30N 43°05' E 010°04'1120.7
2018-Feb-20 02:59N 42°54' E 010°01'1 0.0
2018-Feb-19 11:41N 42°55' E 010°01'421.4
2018-Feb-19 11:30N 42°58' E 010°02'1121.3
2018-Feb-19 11:00N 43°09' E 010°06'1121.2
2018-Feb-19 10:30N 43°19' E 010°10'1020.4
2018-Feb-19 10:00N 43°29' E 010°13'510.5
2018-Feb-19 09:30N 43°33' E 010°17'2 4.2
2018-Feb-19 09:00N 43°35' E 010°18'0 0.0
2018-Feb-19 08:30N 43°35' E 010°18'0 0.0
2018-Feb-19 08:00N 43°35' E 010°18'0 0.0
2018-Feb-19 07:30N 43°35' E 010°18'0 0.0
2018-Feb-19 07:00N 43°35' E 010°18'0 0.0
2018-Feb-19 06:30N 43°35' E 010°18'1 1.5
2018-Feb-19 06:00N 43°34' E 010°18'4 7.7
2018-Feb-19 05:31N 43°31' E 010°15'918.1
2018-Feb-19 05:01N 43°23' E 010°09'1019.4
2018-Feb-19 04:30N 43°14' E 010°06'1019.5
2018-Feb-19 04:00N 43°04' E 010°03'10 0.3
2018-Feb-17 23:16N 42°54' E 010°01'519.5
2018-Feb-17 23:00N 42°59' E 010°02'1019.5
2018-Feb-17 22:30N 43°09' E 010°05'1019.6
2018-Feb-17 22:00N 43°18' E 010°08'1019.5
2018-Feb-17 21:30N 43°28' E 010°11'611.7
2018-Feb-17 21:00N 43°32' E 010°17'3 5.3
2018-Feb-17 20:29N 43°35' E 010°18'0 0.0
2018-Feb-17 19:59N 43°35' E 010°18'0 0.0
2018-Feb-17 19:29N 43°35' E 010°18'0 0.0
2018-Feb-17 18:59N 43°35' E 010°18'0 0.0
2018-Feb-17 18:29N 43°35' E 010°18'0 0.0
2018-Feb-17 17:59N 43°35' E 010°18'0 0.0
2018-Feb-17 17:29N 43°35' E 010°18'0 0.0
2018-Feb-17 16:59N 43°35' E 010°18'0 0.0
2018-Feb-17 16:29N 43°35' E 010°18'0 0.0
2018-Feb-17 15:59N 43°35' E 010°18'0 0.0
2018-Feb-17 15:29N 43°35' E 010°18'0 0.0
2018-Feb-17 14:59N 43°35' E 010°18'0 0.0
2018-Feb-17 14:26N 43°35' E 010°18'0 0.0
2018-Feb-17 13:59N 43°35' E 010°18'0 0.0
2018-Feb-17 13:29N 43°35' E 010°18'0 0.0
2018-Feb-17 12:59N 43°35' E 010°18'0 0.0
2018-Feb-17 12:29N 43°35' E 010°18'0 0.0
2018-Feb-17 11:59N 43°35' E 010°18'0 0.0
2018-Feb-17 11:29N 43°35' E 010°18'0 0.0
2018-Feb-17 10:59N 43°35' E 010°18'0 0.0
2018-Feb-17 10:29N 43°35' E 010°18'0 0.0
2018-Feb-17 09:59N 43°35' E 010°18'0 0.0
2018-Feb-17 09:30N 43°35' E 010°18'0 0.0
2018-Feb-17 09:00N 43°35' E 010°18'0 0.0
2018-Feb-17 08:30N 43°35' E 010°18'0 0.0
2018-Feb-17 08:00N 43°35' E 010°18'0 0.0
2018-Feb-17 07:30N 43°35' E 010°18'0 0.0
2018-Feb-17 07:00N 43°35' E 010°18'0 0.0
2018-Feb-17 06:30N 43°35' E 010°18'1 1.4
2018-Feb-17 06:00N 43°34' E 010°18'4 7.1
2018-Feb-17 05:30N 43°31' E 010°15'816.9
2018-Feb-17 05:00N 43°24' E 010°10'1019.2
2018-Feb-17 04:30N 43°14' E 010°07'1019.4
2018-Feb-17 04:00N 43°05' E 010°04'13 0.8
2018-Feb-16 12:17N 42°52' E 009°60'622.0
2018-Feb-16 12:00N 42°59' E 010°02'1122.1
2018-Feb-16 11:30N 43°09' E 010°05'1122.1
2018-Feb-16 11:00N 43°20' E 010°09'1121.7
2018-Feb-16 10:30N 43°31' E 010°13'5 9.8
2018-Feb-16 10:00N 43°34' E 010°18'1 2.5
2018-Feb-16 09:30N 43°35' E 010°18'0 0.0
2018-Feb-16 09:00N 43°35' E 010°18'0 0.0
2018-Feb-16 08:30N 43°35' E 010°18'0 0.0
2018-Feb-16 08:00N 43°35' E 010°18'0 0.0
2018-Feb-16 07:30N 43°35' E 010°18'0 0.0
2018-Feb-16 07:00N 43°35' E 010°18'1 1.3
2018-Feb-16 06:30N 43°34' E 010°18'2 4.8
2018-Feb-16 06:00N 43°32' E 010°17'510.6
2018-Feb-16 05:31N 43°28' E 010°12'1122.2
2018-Feb-16 05:00N 43°18' E 010°08'1122.2
2018-Feb-16 04:31N 43°07' E 010°04'9 0.6
2018-Feb-15 13:13N 42°59' E 010°01'522.5
2018-Feb-15 13:00N 43°03' E 010°02'1122.6
2018-Feb-15 12:30N 43°14' E 010°06'1122.3
2018-Feb-15 12:00N 43°25' E 010°10'816.8
2018-Feb-15 11:30N 43°32' E 010°16'3 6.4
2018-Feb-15 11:00N 43°35' E 010°18'0 0.2
2018-Feb-15 10:30N 43°35' E 010°18'0 0.0
2018-Feb-15 10:00N 43°35' E 010°18'0 0.0
2018-Feb-15 09:30N 43°35' E 010°18'0 0.0
2018-Feb-15 09:00N 43°35' E 010°18'0 0.0
2018-Feb-15 08:30N 43°35' E 010°18'1 1.5
2018-Feb-15 08:00N 43°34' E 010°18'4 7.3
2018-Feb-15 07:30N 43°31' E 010°15'5 9.4
2018-Feb-15 07:00N 43°27' E 010°11'1122.6
2018-Feb-15 06:31N 43°17' E 010°06'1122.4
2018-Feb-15 06:01N 43°06' E 010°03'1122.5
2018-Feb-15 05:30N 42°55' E 010°00'  

Dump ship's entire track history